• Join FlightAware (Why Join?)
  • Login
  • US Flag 
12:25PM EDT


 

Airport Tracker/Info


-or-


 

Live Flight TrackerFlight Track Log ✈ N662US ✈ 19-Jul-2013 ✈ RJAA / NRT - VTBS / BKK

Flight Track Log - Related Links

Times and Time Zones

All times are in EDT time to prevent confusion due to time zone crossing. See the N662US flight status page for this flight to view local times or setup timezone preferences in your user account.

Time Position Orientation Groundspeed Altitude Reporting Facility
EDT Latitude Longitude Course Direction KTS MPH feet Rate Location/Type
05:54AM 35.7203 140.2484 248° West  Level Estimated
05:54AM 35.7850 140.3590 248° West 181 208 1,300  Level FlightAware
05:55AM 35.6757 140.1105 248° West  Level Estimated
05:55AM 35.8060 140.3450 332° Northwest 182 209 2,400  Level FlightAware
05:55AM 35.8230 140.3330 330° Northwest 184 212 3,100 1,680 Climbing FlightAware
05:56AM 35.8450 140.3180 331° Northwest 199 229 3,900 1,380 Climbing FlightAware
05:56AM 35.8690 140.3000 329° Northwest 231 266 4,400 1,320 Climbing FlightAware
05:56AM 35.8960 140.2810 330° Northwest 256 295 5,100 2,160 Climbing FlightAware
05:57AM 35.9230 140.2610 329° Northwest 260 299 6,300 2,040 Climbing FlightAware
05:57AM 35.9560 140.2370 330° Northwest 263 303 7,100 840 Climbing FlightAware
05:58AM 35.9850 140.2260 343° North 271 312 7,100  Level FlightAware
05:58AM 36.0160 140.2450 26° Northeast 282 325 7,100  Level FlightAware
05:59AM 36.0350 140.2720 49° Northeast 285 328 7,100  Level FlightAware
05:59AM 36.0430 140.3070 74° East 297 342 7,100 120 Level FlightAware
05:59AM 36.0430 140.3240 90° East 300 345 7,200 2,280 Climbing FlightAware
06:00AM 36.0430 140.3950 90° East 304 350 9,100 3,000 Climbing FlightAware
06:00AM 36.0390 140.4370 97° East 318 366 9,900 840 Climbing FlightAware
06:01AM 36.0070 140.5090 119° Southeast 358 412 10,100 120 Climbing FlightAware
06:01AM 35.9670 140.5530 138° Southeast 409 471 10,100 60 Level FlightAware
06:02AM 35.9210 140.5830 152° Southeast 409 471 10,200 780 Climbing FlightAware
06:03AM 35.8710 140.6170 151° Southeast 416 479 11,100 2,580 Climbing FlightAware
06:03AM 35.7660 140.6880 151° Southeast 429 494 14,000 3,300 Climbing FlightAware
06:04AM 35.6920 140.7390 151° Southeast 443 510 15,800 2,580 Climbing FlightAware
06:05AM 35.6200 140.7870 152° Southeast 453 521 17,600 2,460 Climbing FlightAware
06:06AM 35.5370 140.8440 151° Southeast 467 537 19,300 2,040 Climbing FlightAware
06:06AM 35.4720 140.8870 152° Southeast 481 554 20,400 1,800 Climbing FlightAware
06:07AM 35.3830 140.9430 153° Southeast 495 570 21,800 1,980 Climbing FlightAware
06:08AM 35.2880 140.9870 159° South 506 582 23,200 1,920 Climbing FlightAware
06:08AM 35.1970 141.0270 160° South 518 596 24,400 1,680 Climbing FlightAware
06:09AM 35.1150 141.0600 162° South 527 606 25,400 1,620 Climbing FlightAware
06:09AM 35.0230 141.1000 160° South 536 617 26,500 1,740 Climbing FlightAware
06:10AM 34.9220 141.1430 161° South 543 625 27,800 1,560 Climbing FlightAware
06:11AM 34.7820 141.1390 181° South 537 618 29,100 1,260 Climbing FlightAware
06:12AM 34.7100 141.0610 222° Southwest 524 603 29,900 1,620 Climbing FlightAware
06:13AM 34.6480 140.9560 234° Southwest 517 595 31,400 1,860 Climbing FlightAware
06:13AM 34.6040 140.8810 235° Southwest 513 590 32,500 1,380 Climbing FlightAware
06:14AM 34.5430 140.7750 235° Southwest 514 592 33,500 1,020 Climbing FlightAware
06:15AM 34.4890 140.6860 234° Southwest 522 601 34,100 420 Climbing FlightAware
06:15AM 34.4170 140.5820 230° Southwest 530 610 34,100 60 Level FlightAware
06:16AM 34.3340 140.4760 227° Southwest 531 611 34,200 600 Climbing FlightAware
06:17AM 34.2710 140.3930 227° Southwest 533 613 34,900 1,080 Climbing FlightAware
06:17AM 34.1970 140.2990 226° Southwest 530 610 35,700 780 Climbing FlightAware
06:18AM 34.1220 140.2000 228° Southwest 532 612 36,100 300 Climbing FlightAware
06:19AM 34.0640 140.1250 227° Southwest 533 613 36,100  Level FlightAware
06:19AM 34.0040 140.0290 233° Southwest 522 601 36,100  Level FlightAware
06:20AM 33.9340 139.8790 241° Southwest 522 601 36,100  Level FlightAware
06:21AM 33.8870 139.7750 241° Southwest 519 597 36,100  Level FlightAware
06:22AM 33.8440 139.6750 243° Southwest 518 596 36,100  Level FlightAware
06:22AM 33.8210 139.6240 242° Southwest 518 596 36,100  Level FlightAware
06:23AM 33.7750 139.5200 242° Southwest 521 600 36,100  Level FlightAware
06:24AM 33.7260 139.4130 241° Southwest 518 596 36,100  Level FlightAware
06:24AM 33.6570 139.2570 242° Southwest 520 598 36,100  Level FlightAware
06:25AM 33.6150 139.1650 241° Southwest 521 600 36,100  Level FlightAware
06:26AM 33.5560 139.0340 242° Southwest 520 598 36,100  Level FlightAware
06:27AM 33.5170 138.9480 241° Southwest 521 600 36,100  Level FlightAware
06:27AM 33.4580 138.8200 241° Southwest 522 601 36,100  Level FlightAware
06:28AM 33.4060 138.7040 242° Southwest 523 602 36,100  Level FlightAware
06:29AM 33.3590 138.5990 242° Southwest 524 603 36,100  Level FlightAware
06:29AM 33.3130 138.5020 240° Southwest 524 603 36,100  Level FlightAware
06:30AM 33.2700 138.4040 242° Southwest 524 603 36,100  Level FlightAware
06:31AM 33.2220 138.3020 241° Southwest 523 602 36,100  Level FlightAware
06:32AM 33.1410 138.1260 241° Southwest 523 602 36,100  Level FlightAware
06:33AM 33.0730 137.9790 241° Southwest 526 605 36,100  Level FlightAware
06:34AM 33.0130 137.8500 241° Southwest 520 598 36,100  Level FlightAware
06:34AM 32.9790 137.7770 241° Southwest 519 597 36,100  Level FlightAware
06:35AM 32.9220 137.6560 241° Southwest 518 596 36,100  Level FlightAware
06:36AM 32.8620 137.5280 241° Southwest 518 596 36,100  Level FlightAware
06:37AM 32.8280 137.4560 241° Southwest 517 595 36,100  Level FlightAware
06:37AM 32.7880 137.3710 241° Southwest 517 595 36,100  Level FlightAware
06:38AM 32.7170 137.2200 241° Southwest 514 592 36,100  Level FlightAware
06:39AM 32.6780 137.1350 241° Southwest 514 592 36,100  Level FlightAware
06:39AM 32.6420 137.0600 240° Southwest 514 592 36,100  Level FlightAware
06:40AM 32.5470 136.8640 240° Southwest 512 589 36,100  Level FlightAware
06:41AM 32.5030 136.7730 240° Southwest 511 588 36,100  Level FlightAware
06:42AM 32.4660 136.6950 241° Southwest 511 588 36,100  Level FlightAware
06:43AM 32.3960 136.5510 240° Southwest 515 593 36,100  Level FlightAware
06:43AM 32.3420 136.4380 241° Southwest 516 594 36,100  Level FlightAware
06:44AM 32.2760 136.3010 240° Southwest 517 595 36,100  Level FlightAware
06:45AM 32.2330 136.2150 239° Southwest 517 595 36,100  Level FlightAware
06:46AM 32.1440 136.0320 240° Southwest 519 597 36,100  Level FlightAware
06:47AM 32.1070 135.9570 240° Southwest 519 597 36,100  Level FlightAware
06:47AM 32.0380 135.8160 240° Southwest 520 598 36,100  Level FlightAware
06:48AM 31.9940 135.7260 240° Southwest 520 598 36,100  Level FlightAware
06:49AM 31.9500 135.6370 240° Southwest 520 598 36,100 60 Level FlightAware
06:50AM 31.8790 135.4960 239° Southwest 522 601 36,300 600 Climbing FlightAware
06:50AM 31.8200 135.3760 240° Southwest 519 597 37,200 1,080 Climbing FlightAware
06:51AM 31.7800 135.2960 240° Southwest 516 594 37,700 300 Climbing FlightAware
06:52AM 31.7270 135.1910 239° Southwest 516 594 37,700  Level FlightAware
06:52AM 31.6890 135.1180 239° Southwest 516 594 37,700  Level FlightAware
06:53AM 31.6380 135.0180 239° Southwest 516 594 37,700  Level FlightAware
06:54AM 31.6000 134.9440 239° Southwest 516 594 37,700  Level FlightAware
06:54AM 31.5620 134.8710 239° Southwest 516 594 37,700  Level FlightAware
06:55AM 31.5000 134.7480 239° Southwest 516 594 37,700  Level FlightAware
06:56AM 31.4610 134.6730 239° Southwest 516 594 37,700  Level FlightAware
06:57AM 31.4230 134.5990 239° Southwest 516 594 37,700  Level FlightAware
06:58AM 31.3600 134.4750 239° Southwest 516 594 37,700  Level FlightAware
06:58AM 31.3220 134.4020 239° Southwest 516 594 37,700  Level FlightAware
06:59AM 31.2720 134.3040 239° Southwest 516 594 37,700  Level FlightAware
07:00AM 31.2360 134.2350 239° Southwest 516 594 37,700  Level FlightAware
07:00AM 31.1860 134.1370 239° Southwest 516 594 37,700  Level FlightAware
07:03AM 31.0892 133.8603 248° West  Level Estimated
07:04AM 31.0418 133.7255 248° West  Level Estimated
07:05AM 30.9942 133.5909 248° West  Level Estimated
07:06AM 30.9465 133.4564 248° West  Level Estimated
07:07AM 30.8986 133.3220 247° West  Level Estimated
07:08AM 30.8507 133.1877 247° West  Level Estimated
07:09AM 30.8025 133.0536 247° West  Level Estimated
07:09AM 30.4490 132.7200 247° West 521 600 38,100  Level FlightAware
07:10AM 30.3900 132.6110 238° Southwest 521 600 38,100  Level FlightAware
07:10AM 30.3370 132.5110 238° Southwest 520 598 38,100  Level FlightAware
07:11AM 30.2900 132.4220 239° Southwest 520 598 38,100  Level FlightAware
07:12AM 30.2370 132.3250 238° Southwest 519 597 38,100  Level FlightAware
07:12AM 30.1900 132.2380 238° Southwest 516 594 38,100  Level FlightAware
07:13AM 30.1290 132.1240 238° Southwest 515 593 38,100  Level FlightAware
07:14AM 30.0630 132.0030 238° Southwest 513 590 38,100  Level FlightAware
07:15AM 29.9460 131.7880 238° Southwest 508 585 38,100  Level FlightAware
07:16AM 29.8690 131.6690 233° Southwest 508 585 38,100  Level FlightAware
07:17AM 29.8070 131.5830 230° Southwest 508 585 38,100  Level FlightAware
07:18AM 29.7570 131.5130 231° Southwest 508 585 38,100  Level FlightAware
07:19AM 29.6760 131.4010 230° Southwest 507 583 38,100  Level FlightAware
07:19AM 29.6900 131.4210 51° Northeast 506 582 38,100  Level FlightAware
07:20AM 29.6300 131.3350 231° Southwest 506 582 38,100  Level FlightAware
07:21AM 29.5850 131.2710 231° Southwest 506 582 38,100  Level FlightAware
07:21AM 29.5230 131.1840 231° Southwest 506 582 38,100  Level FlightAware
07:22AM 29.4630 131.0990 231° Southwest 506 582 38,100  Level FlightAware
07:23AM 29.4180 131.0350 231° Southwest 506 582 38,100  Level FlightAware
07:24AM 29.3580 130.9500 231° Southwest 506 582 38,100  Level FlightAware
07:24AM 29.3130 130.8860 231° Southwest 506 582 38,100  Level FlightAware
07:25AM 29.2670 130.8200 231° Southwest 506 582 38,100  Level FlightAware
07:26AM 29.2200 130.7550 230° Southwest 506 582 38,100  Level FlightAware
07:26AM 29.1740 130.6890 231° Southwest 506 582 38,100  Level FlightAware
07:27AM 29.1140 130.6040 231° Southwest 506 582 38,100  Level FlightAware
07:28AM 29.0690 130.5400 231° Southwest 506 582 38,100  Level FlightAware
07:28AM 29.0090 130.4560 231° Southwest 506 582 38,100  Level FlightAware
07:31AM 28.9039 130.1712 247° West  Level Estimated
07:31AM 28.5440 129.8310 247° West 38,100  Level FlightAware
07:32AM 28.8552 130.0400 247° West  Level Estimated
07:33AM 28.3730 129.6010 230° Southwest 500 575 38,100  Level FlightAware
07:34AM 28.3150 129.5230 230° Southwest 500 575 38,100  Level FlightAware
07:35AM 28.2720 129.4640 230° Southwest 500 575 38,100  Level FlightAware
07:35AM 28.1750 129.3330 230° Southwest 490 564 38,100  Level FlightAware
07:36AM 28.1120 129.2470 230° Southwest 490 564 38,100  Level FlightAware
07:37AM 28.0670 129.1870 230° Southwest 490 564 38,100  Level FlightAware
07:38AM 27.9930 129.0900 229° Southwest 491 565 38,100  Level FlightAware
07:38AM 27.9490 129.0300 230° Southwest 491 565 38,100  Level FlightAware
07:39AM 27.8800 128.9380 230° Southwest 491 565 38,100  Level FlightAware
07:40AM 27.7660 128.7870 230° Southwest 493 567 38,100  Level FlightAware
07:41AM 27.6860 128.6830 229° Southwest 495 570 38,100  Level FlightAware
07:42AM 27.6060 128.5760 230° Southwest 494 568 38,100  Level FlightAware
07:43AM 27.5460 128.4950 230° Southwest 494 568 38,100  Level FlightAware
07:43AM 27.4690 128.3970 228° Southwest 491 565 38,100  Level FlightAware
07:45AM 27.3600 128.2540 229° Southwest 489 563 38,100  Level FlightAware
07:45AM 27.3040 128.1810 229° Southwest 489 563 38,100  Level FlightAware
07:46AM 27.2370 128.0920 230° Southwest 486 559 38,100  Level FlightAware
07:47AM 27.1680 128.0050 228° Southwest 485 558 38,100  Level FlightAware
07:48AM 27.1240 127.9460 230° Southwest 484 557 38,100  Level FlightAware
07:48AM 27.0450 127.8430 229° Southwest 485 558 38,100  Level FlightAware
07:49AM 26.9660 127.7420 229° Southwest 486 559 38,100  Level FlightAware
07:50AM 26.9050 127.6620 229° Southwest 485 558 38,100  Level FlightAware
07:50AM 26.8470 127.5880 229° Southwest 484 557 38,100  Level FlightAware
07:51AM 26.7890 127.5140 229° Southwest 484 557 38,100  Level FlightAware
07:52AM 26.6930 127.3890 229° Southwest 484 557 38,100  Level FlightAware
07:53AM 26.6330 127.3120 229° Southwest 485 558 38,100  Level FlightAware
07:54AM 26.5670 127.2290 228° Southwest 485 558 38,100  Level FlightAware
07:54AM 26.5140 127.1600 229° Southwest 486 559 38,100  Level FlightAware
07:55AM 26.4550 127.0870 228° Southwest 487 560 38,100  Level FlightAware
07:56AM 26.4130 127.0320 230° Southwest 488 562 38,100  Level FlightAware
07:56AM 26.3280 126.9240 229° Southwest 487 560 38,100  Level FlightAware
07:57AM 26.2430 126.8160 229° Southwest 487 560 38,100  Level FlightAware
07:58AM 26.1810 126.7390 228° Southwest 487 560 38,100  Level FlightAware
07:59AM 26.1200 126.6600 229° Southwest 485 558 38,100  Level FlightAware
07:59AM 26.0720 126.6000 228° Southwest 486 559 38,100  Level FlightAware
08:00AM 26.0170 126.5310 228° Southwest 485 558 38,100  Level FlightAware
08:01AM 25.9360 126.4280 229° Southwest 485 558 38,100  Level FlightAware
08:02AM 25.8620 126.3350 229° Southwest 485 558 38,100  Level FlightAware
08:02AM 25.8130 126.2720 229° Southwest 485 558 38,100  Level FlightAware
08:03AM 25.7680 126.2150 229° Southwest 485 558 38,100  Level FlightAware
08:04AM 25.7000 126.1290 229° Southwest 485 558 38,100  Level FlightAware
08:04AM 25.6550 126.0710 229° Southwest 485 558 38,100  Level FlightAware
08:05AM 25.5800 125.9750 229° Southwest 485 558 38,100  Level FlightAware
08:06AM 25.5340 125.9160 229° Southwest 485 558 38,100  Level FlightAware
08:07AM 25.4890 125.8590 229° Southwest 485 558 38,100  Level FlightAware
08:07AM 25.4290 125.7820 229° Southwest 485 558 38,100  Level FlightAware
08:08AM 25.3680 125.7040 229° Southwest 485 558 38,100  Level FlightAware
08:09AM 25.3200 125.6440 228° Southwest 485 558 38,100  Level FlightAware
08:10AM 25.2750 125.5860 229° Southwest 485 558 38,100  Level FlightAware
08:10AM 25.2140 125.5080 229° Southwest 485 558 38,100  Level FlightAware
08:11AM 25.1690 125.4510 229° Southwest 485 558 38,100  Level FlightAware
08:14AM 25.0504 125.1224 248° West  Level Estimated
08:15AM 25.0039 124.9945 248° West  Level Estimated
08:16AM 24.9574 124.8668 248° West  Level Estimated
08:17AM 24.9108 124.7391 248° West  Level Estimated
08:18AM 24.8640 124.6115 248° West  Level Estimated
08:19AM 24.8172 124.4840 248° West  Level Estimated
08:20AM 24.7702 124.3567 248° West  Level Estimated
08:21AM 24.7231 124.2294 248° West  Level Estimated
08:22AM 24.6759 124.1022 248° West  Level Estimated
08:23AM 24.6286 123.9751 248° West  Level Estimated
08:24AM 24.5812 123.8481 248° West  Level Estimated
08:25AM 24.5337 123.7212 248° West  Level Estimated
08:26AM 24.4861 123.5944 248° West  Level Estimated
08:27AM 24.4384 123.4677 248° West  Level Estimated
08:28AM 24.3906 123.3411 247° West  Level Estimated
08:29AM 24.3427 123.2146 247° West  Level Estimated
08:30AM 24.2946 123.0882 247° West  Level Estimated
08:31AM 24.2465 122.9619 247° West  Level Estimated
08:32AM 24.1983 122.8356 247° West  Level Estimated
08:33AM 24.1499 122.7095 247° West  Level Estimated
08:34AM 24.1015 122.5835 247° West  Level Estimated
08:34AM 23.0410 122.5580 247° West 499 574 38,100  Level FlightAware
08:35AM 24.0529 122.4575 247° West  Level Estimated
08:35AM 22.9820 122.4650 235° Southwest 499 574 38,100  Level FlightAware
08:36AM 22.9320 122.3890 234° Southwest 500 575 38,100  Level FlightAware
08:36AM 22.8950 122.3290 236° Southwest 500 575 38,100  Level FlightAware
08:37AM 22.8210 122.2160 235° Southwest 500 575 38,100  Level FlightAware
08:38AM 22.7700 122.1350 236° Southwest 501 577 38,100  Level FlightAware
08:38AM 22.7180 122.0550 235° Southwest 502 578 38,100  Level FlightAware
08:39AM 22.6600 121.9640 235° Southwest 503 579 38,100  Level FlightAware
08:40AM 22.6160 121.8960 235° Southwest 503 579 38,100  Level FlightAware
08:41AM 22.5650 121.8170 235° Southwest 503 579 38,100  Level FlightAware
08:41AM 22.4870 121.6980 235° Southwest 504 580 38,100  Level FlightAware
08:42AM 22.4310 121.6130 235° Southwest 506 582 38,100  Level FlightAware
08:43AM 22.3770 121.5280 236° Southwest 506 582 38,100  Level FlightAware
08:43AM 22.3300 121.4580 234° Southwest 506 582 38,100  Level FlightAware
08:44AM 22.2660 121.3580 235° Southwest 506 582 38,100  Level FlightAware
08:45AM 22.1830 121.2320 235° Southwest 506 582 38,100  Level FlightAware
08:46AM 22.1210 121.1370 235° Southwest 507 583 38,100  Level FlightAware
08:47AM 22.0610 121.0460 235° Southwest 508 585 38,100 -180 Level FlightAware
08:47AM 22.0120 120.9710 235° Southwest 512 589 37,900 -540 Descending FlightAware
08:48AM 21.9430 120.8700 234° Southwest 509 586 37,300 -660 Descending FlightAware
08:49AM 21.8680 120.7810 228° Southwest 502 578 36,800 -600 Descending FlightAware
08:50AM 21.8020 120.7110 225° Southwest 498 573 36,500 -480 Descending FlightAware
08:50AM 21.7300 120.6380 223° Southwest 492 566 36,200 -300 Descending FlightAware
08:51AM 21.6620 120.5670 224° Southwest 502 578 36,100 -120 Descending FlightAware
08:52AM 21.5880 120.4900 224° Southwest 504 580 36,100  Level FlightAware
08:52AM 21.5410 120.4410 224° Southwest 504 580 36,100  Level FlightAware
08:53AM 21.4480 120.3450 224° Southwest 509 586 36,100  Level FlightAware
08:54AM 21.3870 120.2790 225° Southwest 511 588 36,100  Level FlightAware
08:54AM 21.3240 120.2160 223° Southwest 511 588 36,100  Level FlightAware
08:55AM 21.2380 120.1260 224° Southwest 514 592 36,100  Level FlightAware
08:56AM 21.1600 120.0460 224° Southwest 515 593 36,100  Level FlightAware
08:57AM 21.0450 119.9270 224° Southwest 517 595 36,100  Level FlightAware
08:58AM 20.9670 119.8460 224° Southwest 517 595 36,100  Level FlightAware
08:58AM 20.9100 119.7840 225° Southwest 519 597 36,100  Level FlightAware
08:59AM 20.8400 119.7090 225° Southwest 519 597 36,100  Level FlightAware
09:00AM 20.7700 119.6320 226° Southwest 519 597 36,100  Level FlightAware
09:00AM 20.7060 119.5650 224° Southwest 519 597 36,100  Level FlightAware
09:01AM 20.6290 119.4810 226° Southwest 516 594 36,100  Level FlightAware
09:02AM 20.5620 119.4090 225° Southwest 516 594 36,100  Level FlightAware
09:03AM 20.5000 119.3420 225° Southwest 516 594 36,100  Level FlightAware
09:03AM 20.4430 119.2820 225° Southwest 514 592 36,100  Level FlightAware
09:04AM 20.3270 119.1590 225° Southwest 514 592 36,100  Level FlightAware
09:05AM 20.2650 119.0920 225° Southwest 514 592 36,100  Level FlightAware
09:05AM 20.2030 119.0260 225° Southwest 514 592 36,100  Level FlightAware
09:07AM 20.0800 118.8940 225° Southwest 514 592 36,100  Level FlightAware
09:07AM 20.0270 118.8380 225° Southwest 514 592 36,100  Level FlightAware
09:08AM 19.9610 118.7680 225° Southwest 514 592 36,100  Level FlightAware
09:09AM 19.9080 118.7120 225° Southwest 514 592 36,100  Level FlightAware
09:10AM 19.8390 118.6390 225° Southwest 514 592 36,100  Level FlightAware
09:10AM 19.7880 118.5840 225° Southwest 514 592 36,100  Level FlightAware
09:11AM 19.7250 118.5170 225° Southwest 514 592 36,100  Level FlightAware
09:11AM 19.6750 118.4640 225° Southwest 514 592 36,100  Level FlightAware
09:12AM 19.6060 118.3910 225° Southwest 514 592 36,100  Level FlightAware
09:13AM 19.5550 118.3370 225° Southwest 514 592 36,100  Level FlightAware
09:14AM 19.4860 118.2640 225° Southwest 514 592 36,100  Level FlightAware
09:14AM 19.4290 118.2030 225° Southwest 514 592 36,100  Level FlightAware
09:15AM 19.3780 118.1490 225° Southwest 514 592 36,100  Level FlightAware
09:18AM 19.2876 117.8208 254° West  Level Estimated
09:19AM 19.2527 117.6947 254° West  Level Estimated
09:20AM 19.2177 117.5686 254° West  Level Estimated
09:21AM 19.1826 117.4426 254° West  Level Estimated
09:22AM 19.1474 117.3167 254° West  Level Estimated
09:23AM 19.1122 117.1908 254° West  Level Estimated
09:24AM 19.0768 117.0649 253° West  Level Estimated
09:25AM 19.0414 116.9391 253° West  Level Estimated
09:26AM 19.0059 116.8134 253° West  Level Estimated
09:27AM 18.9703 116.6877 253° West  Level Estimated
09:28AM 18.9346 116.5620 253° West  Level Estimated
09:29AM 18.8988 116.4364 253° West  Level Estimated
09:30AM 18.8629 116.3109 253° West  Level Estimated
09:31AM 18.8270 116.1854 253° West  Level Estimated
09:32AM 18.7910 116.0600 253° West  Level Estimated
09:33AM 18.7549 115.9346 253° West  Level Estimated
09:34AM 18.7187 115.8093 253° West  Level Estimated
09:35AM 18.6824 115.6841 253° West  Level Estimated
09:36AM 18.6461 115.5589 253° West  Level Estimated
09:37AM 18.6096 115.4337 253° West  Level Estimated
09:38AM 18.5731 115.3086 253° West  Level Estimated
09:39AM 18.5365 115.1836 253° West  Level Estimated
09:40AM 18.4998 115.0586 253° West  Level Estimated
09:41AM 18.4630 114.9336 253° West  Level Estimated
09:42AM 18.4262 114.8087 253° West  Level Estimated
09:43AM 18.3892 114.6839 253° West  Level Estimated
09:44AM 18.3522 114.5591 253° West  Level Estimated
09:45AM 18.3151 114.4344 253° West  Level Estimated
09:46AM 18.2780 114.3097 253° West  Level Estimated
09:47AM 18.2407 114.1851 253° West  Level Estimated
09:48AM 18.2034 114.0605 253° West  Level Estimated
09:49AM 18.1659 113.9360 252° West  Level Estimated
09:50AM 18.1284 113.8116 252° West  Level Estimated
09:51AM 18.0909 113.6872 252° West  Level Estimated
09:52AM 18.0532 113.5628 252° West  Level Estimated
09:53AM 18.0155 113.4385 252° West  Level Estimated
09:54AM 17.9776 113.3143 252° West  Level Estimated
09:55AM 17.9397 113.1901 252° West  Level Estimated
09:56AM 17.9019 113.0663 252° West  Level Estimated
09:57AM 17.8639 112.9426 252° West  Level Estimated
09:58AM 17.8259 112.8189 252° West  Level Estimated
09:59AM 17.7878 112.6953 252° West  Level Estimated
10:00AM 17.7496 112.5717 252° West  Level Estimated
10:01AM 17.7114 112.4482 252° West  Level Estimated
10:02AM 17.6731 112.3248 252° West  Level Estimated
10:03AM 17.6347 112.2014 252° West  Level Estimated
10:04AM 17.5962 112.0780 252° West  Level Estimated
10:05AM 17.5576 111.9547 252° West  Level Estimated
10:06AM 17.5190 111.8315 252° West  Level Estimated
10:07AM 17.4803 111.7083 252° West  Level Estimated
10:08AM 17.4415 111.5852 252° West  Level Estimated
10:09AM 17.4026 111.4621 252° West  Level Estimated
10:10AM 17.3637 111.3390 252° West  Level Estimated
10:11AM 17.3247 111.2161 252° West  Level Estimated
10:12AM 17.2856 111.0931 252° West  Level Estimated
10:13AM 17.2464 110.9703 252° West  Level Estimated
10:14AM 17.2072 110.8474 252° West  Level Estimated
10:15AM 17.1679 110.7246 251° West  Level Estimated
10:16AM 17.1285 110.6019 251° West  Level Estimated
10:17AM 17.0890 110.4793 251° West  Level Estimated
10:18AM 17.0495 110.3566 251° West  Level Estimated
10:19AM 17.0099 110.2341 251° West  Level Estimated
10:20AM 16.9702 110.1116 251° West  Level Estimated
10:21AM 16.9305 109.9891 251° West  Level Estimated
10:22AM 16.8906 109.8667 251° West  Level Estimated
10:23AM 16.8507 109.7443 251° West  Level Estimated
10:24AM 16.8108 109.6220 251° West  Level Estimated
10:25AM 16.7707 109.4998 251° West  Level Estimated
10:26AM 16.7306 109.3776 251° West  Level Estimated
10:27AM 16.6904 109.2554 251° West  Level Estimated
10:28AM 16.6502 109.1333 251° West  Level Estimated
10:29AM 16.6098 109.0113 251° West  Level Estimated
10:30AM 16.5694 108.8893 251° West  Level Estimated
10:31AM 16.5290 108.7673 251° West  Level Estimated
10:32AM 16.4884 108.6454 251° West  Level Estimated
10:33AM 16.4478 108.5236 251° West  Level Estimated
10:34AM 16.4071 108.4018 251° West  Level Estimated
10:35AM 16.3664 108.2801 251° West  Level Estimated
10:36AM 16.3256 108.1584 251° West  Level Estimated
10:37AM 16.2847 108.0367 251° West  Level Estimated
10:38AM 16.2437 107.9151 251° West  Level Estimated
10:39AM 16.2027 107.7936 251° West  Level Estimated
10:40AM 16.1616 107.6721 251° West  Level Estimated
10:41AM 16.1204 107.5507 251° West  Level Estimated
10:42AM 16.0792 107.4293 251° West  Level Estimated
10:43AM 16.0379 107.3079 251° West  Level Estimated
10:44AM 15.9965 107.1866 250° West  Level Estimated
10:45AM 15.9551 107.0654 250° West  Level Estimated
10:46AM 15.9135 106.9442 250° West  Level Estimated
10:47AM 15.8720 106.8231 250° West  Level Estimated
10:48AM 15.8303 106.7020 250° West  Level Estimated
10:48AM 13.8870 106.6980 250° West 520 598 38,100  Level FlightAware
10:48AM 13.8830 106.6110 267° West 523 602 38,100  Level FlightAware
10:49AM 15.7886 106.5809 250° West  Level Estimated
10:49AM 13.8770 106.4840 267° West 525 604 38,100  Level FlightAware
10:50AM 13.8730 106.3710 268° West 527 606 38,100  Level FlightAware
10:51AM 13.8650 106.2040 267° West 527 606 38,100  Level FlightAware
10:52AM 13.8610 106.0930 268° West 527 606 38,100  Level FlightAware
10:53AM 13.8570 106.0150 267° West 527 606 38,100  Level FlightAware
10:53AM 13.8530 105.8900 268° West 527 606 38,100  Level FlightAware
10:54AM 13.8470 105.7570 267° West 526 605 38,100  Level FlightAware
10:55AM 13.8420 105.6620 267° West 526 605 38,100  Level FlightAware
10:55AM 13.8370 105.5690 267° West 526 605 38,100  Level FlightAware
10:56AM 13.8340 105.5000 267° West 527 606 38,100  Level FlightAware
10:57AM 13.8310 105.4170 268° West 528 608 38,100  Level FlightAware
10:57AM 13.8270 105.2710 268° West 531 611 38,100  Level FlightAware
10:58AM 13.8310 105.1770 273° West 532 612 38,100  Level FlightAware
10:59AM 13.8370 105.0630 273° West 535 616 38,100  Level FlightAware
10:59AM 13.8420 104.9590 273° West 535 616 38,100  Level FlightAware
11:00AM 13.8470 104.8800 274° West 534 615 38,100  Level FlightAware
11:01AM 13.8510 104.7990 273° West 535 616 38,100  Level FlightAware
11:01AM 13.8600 104.6510 274° West 537 618 38,100  Level FlightAware
11:02AM 13.8650 104.5540 273° West 539 620 38,100  Level FlightAware
11:03AM 13.8720 104.4310 273° West 539 620 38,100  Level FlightAware
11:04AM 13.8780 104.3230 273° West 542 624 38,100  Level FlightAware
11:04AM 13.8830 104.2280 273° West 542 624 38,100  Level FlightAware
11:05AM 13.8910 104.0750 273° West 544 626 38,100  Level FlightAware
11:06AM 13.8970 103.9610 273° West 545 627 38,100  Level FlightAware
11:07AM 13.9030 103.8650 274° West 545 627 38,100  Level FlightAware
11:07AM 13.9090 103.7490 273° West 546 628 38,100  Level FlightAware
11:08AM 13.9140 103.6400 273° West 546 628 38,100  Level FlightAware
11:09AM 13.9200 103.5250 273° West 546 628 38,100  Level FlightAware
11:09AM 13.9260 103.4220 273° West 545 627 38,100  Level FlightAware
11:10AM 13.9310 103.3130 273° West 544 626 38,100  Level FlightAware
11:11AM 13.9360 103.2220 273° West 543 625 38,100  Level FlightAware
11:11AM 13.9420 103.1010 273° West 541 623 38,100  Level FlightAware
11:12AM 13.9470 103.0010 273° West 542 624 38,100  Level FlightAware
11:13AM 13.9520 102.8920 273° West 543 625 38,100  Level FlightAware
11:13AM 13.9560 102.7860 272° West 545 627 38,100  Level FlightAware
11:14AM 13.9550 102.6780 269° West 537 618 38,100  Level FlightAware
11:15AM 13.9390 102.5780 261° West 531 611 38,100  Level FlightAware
11:15AM 13.9220 102.5280 251° West 530 610 38,100  Level FlightAware
11:16AM 13.8900 102.4350 250° West 529 609 38,100  Level FlightAware
11:17AM 13.8580 102.3430 250° West 529 609 38,100 -540 Level FlightAware
11:17AM 13.8120 102.2100 250° West 529 609 37,400 -1,980 Descending FlightAware
11:18AM 13.7710 102.0960 250° West 529 609 35,100 -2,340 Descending FlightAware
11:19AM 13.7400 102.0100 250° West 519 597 34,100 -660 Descending FlightAware
11:21AM 13.7303 101.7916 267° West  Level Estimated
11:21AM 13.5710 101.8250 267° West 474 545 33,500  Level FlightAware
11:21AM 13.4970 101.7570 222° Southwest 461 531 32,200 -1,980 Descending FlightAware
11:22AM 13.4130 101.6810 221° Southwest 449 517 30,700 -1,800 Descending FlightAware
11:23AM 13.3490 101.6240 221° Southwest 436 502 29,500 -1,860 Descending FlightAware
11:24AM 13.2840 101.5670 220° Southwest 423 487 28,100 -1,680 Descending FlightAware
11:24AM 13.2430 101.5320 220° Southwest 417 480 27,300 -840 Descending FlightAware
11:25AM 13.1640 101.4620 221° Southwest 409 471 27,000 -1,200 Descending FlightAware
11:26AM 13.1030 101.4100 220° Southwest 400 460 25,700 -1,440 Descending FlightAware
11:26AM 13.0490 101.3530 226° Southwest 404 465 25,000 -780 Descending FlightAware
11:27AM 13.0400 101.3260 251° West 402 463 25,000  Level FlightAware
11:27AM 13.0490 101.2620 278° West 396 456 25,000  Level FlightAware
11:27AM 13.0630 101.2420 306° West 392 451 25,000 120 Level FlightAware
11:28AM 13.0920 101.2190 322° Northwest 390 449 25,100 -180 Climbing FlightAware
11:29AM 13.1750 101.1900 341° North 379 436 24,800 -900 Descending FlightAware
11:30AM 13.2650 101.1620 343° North 352 405 23,700 -1,440 Descending FlightAware
11:30AM 13.3350 101.1400 343° North 340 391 22,700 -1,500 Descending FlightAware
11:31AM 13.3960 101.1190 341° North 336 387 21,600 -1,680 Descending FlightAware
11:31AM 13.4340 101.1110 348° North 331 381 20,900 -1,620 Descending FlightAware
11:32AM 13.4750 101.1270 21° North 326 375 20,100 -1,320 Descending FlightAware
11:32AM 13.4810 101.1340 49° Northeast 326 375 19,900 -1,380 Descending FlightAware
11:33AM 13.4950 101.1840 74° East 325 374 18,900 -1,680 Descending FlightAware
11:33AM 13.4650 101.2310 123° Southeast 325 374 17,900 -1,920 Descending FlightAware
11:34AM 13.4350 101.2380 167° South 321 369 17,300 -2,280 Descending FlightAware
11:34AM 13.3990 101.2220 203° Southwest 311 358 16,500 -2,220 Descending FlightAware
11:34AM 13.3900 101.2060 240° Southwest 309 356 16,100 -1,620 Descending FlightAware
11:34AM 13.3860 101.1860 258° West 307 353 15,800 -1,260 Descending FlightAware
11:35AM 13.3940 101.1570 286° West 304 350 15,200 -1,200 Descending FlightAware
11:36AM 13.4230 101.0960 296° West 286 329 14,400 -1,260 Descending FlightAware
11:36AM 13.4350 101.0820 311° West 280 322 14,100 -1,200 Descending FlightAware
11:36AM 13.4690 101.0490 317° Northwest 268 308 13,400 -1,320 Descending FlightAware
11:37AM 13.5100 101.0090 317° Northwest 262 302 12,300 -1,440 Descending FlightAware
11:38AM 13.5430 100.9760 316° Northwest 257 296 11,400 -1,380 Descending FlightAware
11:39AM 13.5810 100.9390 317° Northwest 248 285 10,400 -1,260 Descending FlightAware
11:39AM 13.5980 100.9220 316° Northwest 245 282 10,000 -1,080 Descending FlightAware
11:39AM 13.6140 100.9060 316° Northwest 241 277 9,500 -900 Descending FlightAware
11:40AM 13.6330 100.8870 316° Northwest 238 274 9,200 -600 Descending FlightAware
11:40AM 13.6660 100.8550 317° Northwest 231 266 9,000 -900 Descending FlightAware
11:41AM 13.6800 100.8490 337° Northwest 238 274 8,600 -1,380 Descending FlightAware
11:41AM 13.7100 100.8530 North 244 281 8,100 -1,320 Descending FlightAware
11:42AM 13.7410 100.8620 16° North 242 278 7,400 -1,440 Descending FlightAware
11:42AM 13.7700 100.8750 24° Northeast 247 284 6,800 -1,320 Descending FlightAware
11:42AM 13.7920 100.8920 37° Northeast 247 284 6,300 -1,320 Descending FlightAware
11:43AM 13.8110 100.9050 34° Northeast 247 284 5,800 -960 Descending FlightAware
11:43AM 13.8240 100.9140 34° Northeast 246 283 5,600 -1,200 Descending FlightAware
11:44AM 13.8640 100.9430 35° Northeast 243 280 4,700 -1,140 Descending FlightAware
11:44AM 13.8900 100.9630 37° Northeast 245 282 4,500 -300 Descending FlightAware
11:44AM 13.9050 100.9730 33° Northeast 244 281 4,500  Level FlightAware
11:45AM 13.9170 100.9780 22° Northeast 234 269 4,500 -300 Level FlightAware
11:45AM 13.9420 100.9680 339° North 201 231 4,300 -540 Descending FlightAware
11:45AM 13.9480 100.9540 294° West 194 223 4,100 -960 Descending FlightAware
11:46AM 13.9530 100.9390 289° West 191 220 3,800 -1,140 Descending FlightAware
11:46AM 13.9570 100.9220 284° West 188 216 3,400 -1,320 Descending FlightAware
11:46AM 13.9480 100.8980 249° West 191 220 2,700 -960 Descending FlightAware
11:47AM 13.9440 100.8890 245° Southwest 190 219 2,500 -480 Descending FlightAware
11:48AM 13.9230 100.8590 234° Southwest 184 212 2,200 -300 Descending FlightAware
11:48AM 13.9020 100.8440 215° Southwest 183 211 2,200  Level FlightAware
11:48AM 13.8790 100.8260 217° Southwest 180 207 2,200  Level FlightAware
11:49AM 13.8600 100.8110 217° Southwest 182 209 2,200  Level FlightAware
11:49AM 13.8390 100.8000 207° Southwest 182 209 2,200  Level FlightAware
11:50AM 13.8160 100.7940 194° South 173 199 2,200 -120 Level FlightAware
11:50AM 13.7950 100.7880 196° South 169 194 2,100 -360 Descending FlightAware
11:51AM 13.7790 100.7840 194° South 163 188 1,900 -720 Descending FlightAware
11:51AM 13.7600 100.7790 194° South 151 174 1,500 -780 Descending FlightAware
11:52AM 13.7440 100.7750 194° South 146 168 1,200 -840 Descending FlightAware
11:52AM 13.7250 100.7700 194° South 147 169 800 -840 Descending FlightAware
11:53AM 13.7040 100.7640 196° South 153 176 400 -420 Descending FlightAware
11:53AM 13.6890 100.7600 195° South 153 176 400  Level FlightAware